Overview Statistics Trail Chart Weather Telemetry Raw packets
 

This is the latest recevied weather packets stored in our database for station/object KI4KWR-1. If no packets are shown the sender has not sent any weather packets the latest 10 day(s).

<< 17 18 19 20 21 22 23 >>
Time Temp. Humidity Pressure Rain* Wind** Luminosity Snow
1788212704 33.33° C 48% 989.4 hPa 0 mm - - -
1788211804 32.78° C 51% 989.4 hPa 0 mm - - -
1788210904 32.78° C 52% 989.5 hPa 0 mm - - -
1788210004 33.33° C 50% 989.7 hPa 0 mm - - -
1788209104 33.33° C 49% 989.8 hPa 0 mm - - -
1788208204 32.78° C 52% 989.9 hPa 0 mm - - -
1788207304 33.33° C 52% 990 hPa 0 mm - - -
1788206404 34.44° C 47% 990.2 hPa 0 mm - - -
1788205505 32.22° C 51% 990.4 hPa 0 mm - - -
1788204604 33.89° C 49% 990.5 hPa 0 mm - - -
1788203703 33.33° C 53% 990.6 hPa 0 mm - - -
1788202804 32.78° C 52% 990.9 hPa 0 mm - - -
1788201904 32.78° C 56% 991.1 hPa 0 mm - - -
1788201004 34.44° C 48% 991.1 hPa 0 mm - - -
1788200103 33.89° C 51% 991.2 hPa 0 mm - - -
1788199204 33.33° C 53% 991.4 hPa 0 mm - - -
1788198303 33.33° C 54% 991.5 hPa 0 mm - - -
1788197404 32.22° C 56% 991.7 hPa 0 mm - - -
1788196504 33.89° C 53% 991.9 hPa 0 mm - - -
1788195604 31.67° C 57% 992 hPa 0 mm - - -
1788194703 33.33° C 54% 992 hPa 0 mm - - -
1788193803 33.33° C 55% 992.2 hPa 0 mm - - -
1788192904 31.67° C 57% 992.2 hPa 0 mm - - -
1788192014 30° C 63% 992.3 hPa 0 mm - - -
1788191103 31.11° C 63% 992.2 hPa 0 mm - - -

* Rain latest hour (hover to see other rain measurements)
** Current wind speed in m/s (hover to see current wind gust speed)